createdAt,value
2018-08-08T00:01:03.106Z,2.98
2018-08-08T00:03:31.008Z,3.08
2018-08-08T00:05:58.830Z,2.60
2018-08-08T00:08:26.725Z,3.15
2018-08-08T00:10:54.489Z,2.67
2018-08-08T00:13:22.347Z,2.83
2018-08-08T00:15:50.106Z,3.05
2018-08-08T00:18:17.573Z,3.47
2018-08-08T00:20:45.025Z,2.75
2018-08-08T00:23:12.459Z,2.90
2018-08-08T00:25:39.952Z,3.17
2018-08-08T00:28:07.395Z,3.00
2018-08-08T00:30:34.862Z,3.00
2018-08-08T00:33:02.273Z,3.35
2018-08-08T00:35:29.732Z,3.30
2018-08-08T00:37:57.207Z,2.98
2018-08-08T00:40:24.678Z,2.92
2018-08-08T00:42:52.134Z,2.95
2018-08-08T00:45:19.576Z,3.17
2018-08-08T00:47:47.543Z,3.08
2018-08-08T00:50:15.738Z,3.50
2018-08-08T00:52:43.618Z,2.98
2018-08-08T00:55:11.363Z,2.85
2018-08-08T00:57:39.246Z,2.85
2018-08-08T01:00:07.822Z,3.25
2018-08-08T01:02:35.855Z,3.25
2018-08-08T01:05:04.283Z,3.05
2018-08-08T01:07:31.742Z,3.27
2018-08-08T01:09:59.186Z,3.58
2018-08-08T01:12:26.622Z,3.30
2018-08-08T01:14:54.075Z,2.83
2018-08-08T01:17:21.541Z,3.83
2018-08-08T01:19:48.983Z,3.55
2018-08-08T01:22:16.466Z,2.95
2018-08-08T01:24:43.935Z,3.15
2018-08-08T01:27:11.606Z,3.33
2018-08-08T01:29:39.050Z,3.40
2018-08-08T01:32:06.501Z,3.58
2018-08-08T01:34:33.938Z,3.90
2018-08-08T01:37:01.378Z,3.50
2018-08-08T01:39:28.855Z,3.20
2018-08-08T01:41:56.306Z,4.05
2018-08-08T01:44:23.749Z,3.55
2018-08-08T01:46:51.208Z,3.85
2018-08-08T01:49:18.614Z,3.27
2018-08-08T01:51:46.120Z,3.62
2018-08-08T01:54:13.562Z,4.10
2018-08-08T01:56:41.039Z,3.25
2018-08-08T01:59:08.511Z,3.35
2018-08-08T02:01:35.971Z,3.83
2018-08-08T02:04:03.531Z,3.52
2018-08-08T02:06:30.935Z,3.83
2018-08-08T02:08:58.447Z,3.92
2018-08-08T02:11:26.645Z,3.80
2018-08-08T02:13:54.146Z,3.25
2018-08-08T02:16:21.614Z,3.33
2018-08-08T02:18:49.102Z,3.75
2018-08-08T02:21:16.570Z,3.40
2018-08-08T02:23:44.086Z,4.00
2018-08-08T02:26:11.534Z,3.70
2018-08-08T02:28:39.012Z,3.50
2018-08-08T02:31:06.476Z,3.37
2018-08-08T02:33:33.952Z,3.65
2018-08-08T02:36:02.416Z,3.33
2018-08-08T02:38:29.965Z,3.42
2018-08-08T02:40:57.523Z,3.55
2018-08-08T02:43:25.034Z,3.17
2018-08-08T02:45:52.550Z,3.50
2018-08-08T02:48:20.006Z,3.77
2018-08-08T02:50:47.461Z,3.80
2018-08-08T02:53:14.948Z,3.90
2018-08-08T02:55:42.422Z,5.17
2018-08-08T02:58:09.887Z,5.37
2018-08-08T03:00:37.326Z,5.15
2018-08-08T03:03:04.866Z,5.05
2018-08-08T03:05:36.857Z,4.83
2018-08-08T03:08:05.445Z,5.40
2018-08-08T03:10:32.918Z,5.70
2018-08-08T03:13:00.400Z,5.70
2018-08-08T03:15:27.907Z,5.85
2018-08-08T03:17:55.396Z,6.55
2018-08-08T03:20:22.886Z,5.05
2018-08-08T03:22:50.431Z,5.75
2018-08-08T03:25:18.056Z,5.47
2018-08-08T03:27:45.934Z,5.90
2018-08-08T03:30:15.071Z,5.67
2018-08-08T03:32:42.558Z,4.97
2018-08-08T03:35:10.055Z,5.80
2018-08-08T03:37:37.600Z,5.83
2018-08-08T03:40:05.675Z,6.00
2018-08-08T03:42:33.287Z,6.30
2018-08-08T03:45:00.737Z,6.30
2018-08-08T03:47:28.330Z,6.33
2018-08-08T03:49:55.829Z,7.05
2018-08-08T03:52:23.305Z,6.25
2018-08-08T03:54:50.753Z,6.00
2018-08-08T03:57:18.265Z,5.90
2018-08-08T03:59:45.754Z,5.97
2018-08-08T04:02:13.212Z,5.28
2018-08-08T04:04:40.772Z,5.70
2018-08-08T04:07:08.255Z,5.55
2018-08-08T04:09:35.802Z,6.85
2018-08-08T04:12:06.566Z,5.50
2018-08-08T04:14:34.120Z,5.25
2018-08-08T04:17:01.615Z,5.50
2018-08-08T04:19:40.456Z,5.42
2018-08-08T04:22:07.973Z,6.08
2018-08-08T04:24:35.446Z,5.70
2018-08-08T04:27:03.352Z,5.65
2018-08-08T04:29:30.992Z,5.80
2018-08-08T04:31:58.534Z,5.72
2018-08-08T04:34:25.994Z,5.33
2018-08-08T04:36:53.474Z,6.35
2018-08-08T04:39:20.946Z,5.75
2018-08-08T04:41:48.491Z,6.08
2018-08-08T04:44:15.959Z,6.10
2018-08-08T04:46:43.419Z,5.75
2018-08-08T04:49:10.958Z,5.35
2018-08-08T04:51:38.442Z,6.03
2018-08-08T04:54:05.955Z,6.25
2018-08-08T04:56:33.366Z,6.28
2018-08-08T04:59:00.862Z,6.75
2018-08-08T05:01:28.346Z,6.30
2018-08-08T05:03:55.830Z,6.45
2018-08-08T05:06:23.322Z,14.23
2018-08-08T05:08:50.834Z,6.87
2018-08-08T05:11:18.334Z,6.37
2018-08-08T05:13:45.809Z,5.95
2018-08-08T05:16:13.294Z,6.15
2018-08-08T05:18:40.803Z,5.70
2018-08-08T05:21:08.421Z,6.10
2018-08-08T05:23:35.999Z,5.55
2018-08-08T05:26:03.720Z,5.47
2018-08-08T05:28:31.291Z,5.15
2018-08-08T05:30:59.030Z,4.83
2018-08-08T05:44:41.935Z,4.15
2018-08-08T05:47:09.455Z,4.50
2018-08-08T05:49:37.063Z,3.45
2018-08-08T05:52:04.623Z,3.50
2018-08-08T05:54:32.114Z,3.55
2018-08-08T05:56:59.658Z,3.40
2018-08-08T05:59:27.132Z,3.87
2018-08-08T06:01:54.647Z,3.33
2018-08-08T06:04:22.171Z,3.35
2018-08-08T06:06:49.679Z,4.45
2018-08-08T06:09:17.234Z,2.95
2018-08-08T06:11:44.719Z,3.55
2018-08-08T06:14:12.228Z,3.87
2018-08-08T06:16:39.795Z,3.40
2018-08-08T06:19:07.316Z,3.00
2018-08-08T06:21:34.807Z,3.83
2018-08-08T06:24:02.366Z,3.10
2018-08-08T06:26:29.871Z,3.85
2018-08-08T06:28:57.341Z,3.67
2018-08-08T06:31:25.155Z,3.83
2018-08-08T06:33:52.970Z,3.83
2018-08-08T06:36:21.117Z,3.65
2018-08-08T06:38:48.607Z,3.55
2018-08-08T06:41:16.097Z,3.75
2018-08-08T06:43:44.628Z,3.60
2018-08-08T06:46:13.537Z,3.90
2018-08-08T06:48:41.045Z,3.20
2018-08-08T06:51:08.627Z,3.25
2018-08-08T06:53:36.156Z,3.10
2018-08-08T06:56:03.672Z,3.80
2018-08-08T06:58:31.301Z,3.50
2018-08-08T07:00:58.935Z,3.08
2018-08-08T07:03:26.416Z,4.05
2018-08-08T07:05:53.949Z,3.45
2018-08-08T07:08:21.435Z,3.60
2018-08-08T07:10:48.899Z,3.72
2018-08-08T07:13:16.358Z,3.55
2018-08-08T07:15:43.884Z,3.98
2018-08-08T07:18:11.400Z,3.40
2018-08-08T07:20:38.912Z,3.30
2018-08-08T07:23:06.598Z,3.83
2018-08-08T07:25:34.085Z,3.75
2018-08-08T07:28:01.640Z,3.83
2018-08-08T07:30:29.104Z,3.60
2018-08-08T07:32:56.579Z,3.35
2018-08-08T07:35:24.051Z,3.70
2018-08-08T07:37:51.663Z,2.98
2018-08-08T07:40:19.614Z,2.95
2018-08-08T07:42:47.099Z,3.35
2018-08-08T07:45:24.559Z,2.92
2018-08-08T07:47:52.171Z,4.03
2018-08-08T07:50:19.750Z,3.87
2018-08-08T07:52:47.272Z,3.62
2018-08-08T07:55:15.899Z,3.22
2018-08-08T07:57:43.687Z,3.33
2018-08-08T08:00:14.602Z,3.77
2018-08-08T08:02:42.157Z,3.65
2018-08-08T08:05:09.763Z,3.40
2018-08-08T08:07:37.255Z,3.50
2018-08-08T08:10:04.989Z,2.92
2018-08-08T08:12:32.611Z,2.98
2018-08-08T08:15:00.059Z,2.92
2018-08-08T08:17:27.559Z,3.27
2018-08-08T08:19:55.071Z,3.35
2018-08-08T08:22:22.522Z,3.30
2018-08-08T08:24:50.016Z,3.98
2018-08-08T08:27:17.482Z,3.77
2018-08-08T08:29:44.963Z,3.22
2018-08-08T08:32:12.432Z,4.22
2018-08-08T08:34:39.915Z,3.72
2018-08-08T08:37:07.378Z,3.77
2018-08-08T08:39:34.931Z,3.35
2018-08-08T08:42:02.397Z,3.05
2018-08-08T08:44:29.875Z,3.50
2018-08-08T08:46:57.388Z,2.70
2018-08-08T08:49:24.928Z,3.30
2018-08-08T08:51:52.526Z,2.70
2018-08-08T08:54:20.092Z,2.65
2018-08-08T08:56:47.584Z,2.10
2018-08-08T08:59:15.124Z,2.20
2018-08-08T09:01:42.742Z,1.80
2018-08-08T09:04:10.172Z,2.10
2018-08-08T09:06:37.787Z,2.30
2018-08-08T09:09:07.935Z,1.90
2018-08-08T09:11:35.595Z,1.90
2018-08-08T09:14:03.187Z,2.83
2018-08-08T09:16:30.645Z,3.37
2018-08-08T09:18:58.115Z,2.27
2018-08-08T09:21:25.594Z,2.70
2018-08-08T09:23:53.075Z,2.83
2018-08-08T09:26:22.780Z,2.80
2018-08-08T09:28:50.279Z,2.58
2018-08-08T09:31:17.715Z,3.10
2018-08-08T09:33:45.154Z,2.67
2018-08-08T09:36:12.628Z,2.17
2018-08-08T09:38:40.071Z,3.02
2018-08-08T09:41:07.589Z,2.67
2018-08-08T09:43:35.073Z,2.60
2018-08-08T09:46:02.558Z,3.02
2018-08-08T09:48:30.065Z,2.72
2018-08-08T09:50:57.512Z,2.35
2018-08-08T09:53:25.003Z,2.35
2018-08-08T09:55:52.461Z,2.42
2018-08-08T09:58:19.967Z,2.35
2018-08-08T10:00:52.970Z,2.15
2018-08-08T10:03:26.236Z,2.55
2018-08-08T10:05:53.685Z,3.10
2018-08-08T10:08:21.127Z,2.30
2018-08-08T10:10:48.582Z,2.00
2018-08-08T10:13:16.038Z,2.42
2018-08-08T10:15:43.451Z,2.20
2018-08-08T10:18:10.995Z,2.20
2018-08-08T10:20:38.445Z,2.20
2018-08-08T10:23:05.876Z,2.05
2018-08-08T10:25:33.594Z,2.52
2018-08-08T10:28:01.010Z,2.08
2018-08-08T10:30:28.435Z,1.85
2018-08-08T10:32:55.911Z,2.30
2018-08-08T10:35:23.377Z,2.27
2018-08-08T10:37:50.871Z,1.67
2018-08-08T10:40:18.394Z,2.22
2018-08-08T10:42:45.935Z,2.52
2018-08-08T10:45:13.396Z,2.40
2018-08-08T10:47:40.870Z,2.30
2018-08-08T10:50:08.332Z,2.25
2018-08-08T10:52:35.836Z,3.12
2018-08-08T10:55:04.344Z,2.90
2018-08-08T10:57:31.803Z,3.25
2018-08-08T10:59:59.263Z,2.60
2018-08-08T11:02:26.772Z,3.02
2018-08-08T11:04:54.242Z,2.90
2018-08-08T11:07:21.720Z,2.87
2018-08-08T11:09:49.176Z,2.65
2018-08-08T11:12:16.627Z,3.37
2018-08-08T11:14:44.103Z,3.15
2018-08-08T11:17:11.565Z,3.10
2018-08-08T11:19:39.074Z,2.92
2018-08-08T11:22:06.606Z,3.52
2018-08-08T11:24:34.067Z,3.15
2018-08-08T11:27:01.585Z,3.05
2018-08-08T11:29:29.426Z,3.35
2018-08-08T11:31:56.942Z,3.40
2018-08-08T11:34:24.411Z,2.62
2018-08-08T11:36:51.945Z,3.02
2018-08-08T11:39:19.365Z,3.50
2018-08-08T11:41:46.867Z,3.00
2018-08-08T11:44:15.616Z,3.30
2018-08-08T11:46:44.760Z,3.77
2018-08-08T11:49:12.355Z,3.60
2018-08-08T11:51:40.287Z,3.47
2018-08-08T11:54:09.345Z,3.22
2018-08-08T11:56:38.036Z,2.77
2018-08-08T11:59:06.462Z,3.50
2018-08-08T12:01:33.932Z,3.62
2018-08-08T12:04:01.427Z,3.37
2018-08-08T12:06:28.864Z,2.80
2018-08-08T12:08:56.364Z,3.40
2018-08-08T12:11:23.814Z,3.12
2018-08-08T12:13:51.252Z,3.58
2018-08-08T12:16:18.736Z,3.50
2018-08-08T12:18:46.191Z,3.37
2018-08-08T12:21:13.635Z,4.12
2018-08-08T12:23:41.220Z,3.92
2018-08-08T12:26:08.712Z,3.22
2018-08-08T12:28:36.280Z,3.50
2018-08-08T12:31:03.702Z,3.42
2018-08-08T12:33:31.276Z,2.87
2018-08-08T12:35:58.731Z,3.98
2018-08-08T12:38:26.195Z,3.60
2018-08-08T12:40:53.655Z,3.70
2018-08-08T12:43:21.144Z,3.00
2018-08-08T12:45:48.623Z,3.50
2018-08-08T12:48:16.072Z,2.90
2018-08-08T12:50:43.738Z,3.77
2018-08-08T12:53:11.365Z,3.65
2018-08-08T12:55:39.405Z,3.00
2018-08-08T12:58:07.165Z,3.30
2018-08-08T13:00:34.688Z,2.83
2018-08-08T13:03:02.910Z,3.42
2018-08-08T13:05:30.638Z,3.40
2018-08-08T13:07:58.109Z,3.10
2018-08-08T13:10:25.555Z,3.42
2018-08-08T13:12:52.982Z,3.47
2018-08-08T13:15:20.435Z,3.02
2018-08-08T13:17:47.932Z,3.33
2018-08-08T13:20:15.446Z,3.87
2018-08-08T13:22:42.981Z,3.42
2018-08-08T13:25:10.467Z,3.33
2018-08-08T13:27:37.895Z,3.22
2018-08-08T13:30:06.179Z,2.77
2018-08-08T13:32:33.664Z,3.00
2018-08-08T13:35:01.076Z,3.30
2018-08-08T13:37:28.524Z,3.00
2018-08-08T13:39:57.228Z,3.35
2018-08-08T13:42:24.687Z,3.37
2018-08-08T13:44:52.165Z,2.83
2018-08-08T13:47:19.647Z,3.60
2018-08-08T13:49:47.087Z,3.95
2018-08-08T13:52:14.539Z,3.30
2018-08-08T13:54:41.984Z,3.27
2018-08-08T13:57:09.460Z,3.27
2018-08-08T13:59:36.967Z,3.55
2018-08-08T14:02:04.434Z,3.17
2018-08-08T14:04:31.909Z,3.72
2018-08-08T14:06:59.355Z,3.20
2018-08-08T14:09:26.779Z,3.00
2018-08-08T14:11:54.246Z,3.22
2018-08-08T14:31:41.743Z,3.90
2018-08-08T14:34:09.203Z,3.20
2018-08-08T14:53:57.499Z,3.40
2018-08-08T14:56:26.955Z,3.92
2018-08-08T14:58:54.420Z,4.03
2018-08-08T15:01:21.889Z,3.80
2018-08-08T15:03:50.099Z,4.20
2018-08-08T15:06:17.670Z,3.62
2018-08-08T15:08:45.147Z,3.40
2018-08-08T15:11:12.969Z,3.62
2018-08-08T15:13:40.398Z,3.85
2018-08-08T15:16:07.847Z,3.83
2018-08-08T15:18:35.284Z,4.37
2018-08-08T15:21:02.779Z,2.80
2018-08-08T15:23:30.295Z,4.08
2018-08-08T15:25:57.799Z,3.60
2018-08-08T15:28:25.291Z,3.45
2018-08-08T15:30:52.763Z,4.20
2018-08-08T15:33:20.198Z,3.72
2018-08-08T15:35:47.631Z,3.98
2018-08-08T15:38:15.100Z,3.83
2018-08-08T15:40:42.548Z,3.40
2018-08-08T15:43:10.088Z,4.00
2018-08-08T15:45:37.521Z,3.98
2018-08-08T15:48:05.158Z,3.25
2018-08-08T16:07:50.471Z,3.45
2018-08-08T16:10:17.915Z,3.67
2018-08-08T16:12:45.415Z,4.25
2018-08-08T16:15:12.928Z,3.50
2018-08-08T16:17:40.393Z,3.77
2018-08-08T16:20:07.903Z,3.50
2018-08-08T16:39:54.250Z,3.35
2018-08-08T16:42:21.703Z,3.33
2018-08-08T16:44:49.151Z,3.60
2018-08-08T16:47:16.694Z,4.22
2018-08-08T16:49:44.135Z,3.80
2018-08-08T16:52:11.631Z,3.65
2018-08-08T17:11:56.739Z,3.27
2018-08-08T17:14:24.210Z,3.55
2018-08-08T17:16:51.660Z,3.20
2018-08-08T17:19:19.148Z,3.10
2018-08-08T17:21:47.035Z,3.40
2018-08-08T17:24:14.475Z,3.40
2018-08-08T17:26:41.974Z,3.92
2018-08-08T17:29:09.616Z,3.70
2018-08-08T17:31:37.072Z,3.62
2018-08-08T17:34:04.698Z,3.25
2018-08-08T17:36:32.188Z,3.55
2018-08-08T17:56:17.962Z,3.05
2018-08-08T17:58:45.440Z,3.50
2018-08-08T18:01:12.942Z,3.75
2018-08-08T18:03:40.418Z,3.77
2018-08-08T18:06:07.900Z,3.40
2018-08-08T18:08:35.343Z,3.90
2018-08-08T18:11:02.888Z,3.62
2018-08-08T18:13:30.427Z,3.65
2018-08-08T18:15:57.951Z,4.40
2018-08-08T18:18:25.471Z,3.40
2018-08-08T18:20:52.963Z,4.28
2018-08-08T18:23:20.506Z,3.20
2018-08-08T18:25:47.973Z,3.70
2018-08-08T18:28:15.421Z,3.27
2018-08-08T18:30:42.880Z,4.03
2018-08-08T18:33:10.395Z,3.72
2018-08-08T18:35:37.908Z,3.75
2018-08-08T18:38:05.698Z,3.92
2018-08-08T18:40:33.721Z,3.65
2018-08-08T18:43:01.669Z,3.60
2018-08-08T18:45:29.271Z,3.42
2018-08-08T18:47:56.740Z,3.65
2018-08-08T18:50:25.990Z,3.40
2018-08-08T18:52:54.675Z,3.47
2018-08-08T19:12:40.327Z,3.35
2018-08-08T19:15:07.856Z,4.20
2018-08-08T19:17:35.805Z,4.17
2018-08-08T19:20:03.926Z,4.08
2018-08-08T19:22:31.411Z,3.58
2018-08-08T19:24:58.910Z,3.95
2018-08-08T19:27:26.369Z,3.50
2018-08-08T19:29:53.843Z,4.25
2018-08-08T19:32:21.751Z,3.77
2018-08-08T19:34:49.295Z,4.45
2018-08-08T19:37:16.803Z,12.90
2018-08-08T19:39:44.496Z,3.98
2018-08-08T19:42:12.433Z,4.20
2018-08-08T19:44:39.939Z,4.28
2018-08-08T19:55:48.169Z,4.28
2018-08-08T19:58:16.755Z,3.85
2018-08-08T20:00:45.169Z,4.17
2018-08-08T20:03:28.926Z,3.75
2018-08-08T20:05:57.233Z,4.45
2018-08-08T20:08:27.960Z,3.45
2018-08-08T20:10:57.526Z,3.80
2018-08-08T20:13:25.016Z,4.62
2018-08-08T20:15:55.605Z,4.20
2018-08-08T20:18:24.055Z,3.90
2018-08-08T20:20:54.970Z,3.95
2018-08-08T20:23:23.223Z,4.42
2018-08-08T20:25:51.663Z,4.08
2018-08-08T20:28:20.812Z,4.22
2018-08-08T20:30:49.564Z,4.17
2018-08-08T20:33:22.694Z,3.98
2018-08-08T20:35:50.291Z,4.47
2018-08-08T20:38:18.068Z,4.33
2018-08-08T20:40:45.506Z,3.65
2018-08-08T20:43:13.032Z,4.28
2018-08-08T20:45:40.675Z,3.80
2018-08-08T20:48:08.228Z,4.20
2018-08-08T20:50:35.782Z,4.22
2018-08-08T20:53:03.329Z,4.12
2018-08-08T20:55:30.822Z,4.05
2018-08-08T20:57:58.375Z,4.17
2018-08-08T21:00:25.938Z,3.83
2018-08-08T21:02:53.428Z,4.35
2018-08-08T21:05:21.421Z,4.30
2018-08-08T21:07:48.899Z,3.45
2018-08-08T21:10:16.482Z,4.15
2018-08-08T21:12:44.473Z,4.17
2018-08-08T21:15:12.232Z,4.28
2018-08-08T21:17:39.794Z,4.37
2018-08-08T21:20:07.362Z,4.12
2018-08-08T21:22:35.644Z,4.05
2018-08-08T21:25:03.349Z,4.55
2018-08-08T21:27:31.608Z,3.98
2018-08-08T21:29:59.673Z,3.72
2018-08-08T21:32:27.226Z,4.55
2018-08-08T21:34:55.189Z,4.47
2018-08-08T21:37:23.984Z,4.58
2018-08-08T21:39:51.731Z,4.30
2018-08-08T21:42:19.239Z,4.30
2018-08-08T21:44:47.582Z,4.60
2018-08-08T21:47:15.774Z,4.60
2018-08-08T21:49:43.735Z,4.17
2018-08-08T21:52:11.788Z,3.98
2018-08-08T21:54:51.025Z,4.22
2018-08-08T21:57:30.114Z,4.40
2018-08-08T22:00:09.360Z,4.20
2018-08-08T22:02:48.419Z,4.62
2018-08-08T22:05:27.488Z,4.72
2018-08-08T22:08:06.422Z,4.95
2018-08-08T22:10:45.335Z,4.65
2018-08-08T22:13:24.312Z,4.78
2018-08-08T22:16:03.331Z,4.12
2018-08-08T22:18:42.095Z,4.40
2018-08-08T22:21:09.616Z,4.83
2018-08-08T22:23:37.083Z,4.28
2018-08-08T22:26:05.084Z,4.47
2018-08-08T22:28:32.578Z,4.15
2018-08-08T22:31:00.062Z,4.62
2018-08-08T22:33:27.495Z,4.20
2018-08-08T22:35:54.986Z,5.37
2018-08-08T22:38:22.506Z,5.42
2018-08-08T22:40:49.959Z,5.53
2018-08-08T22:43:17.423Z,4.62
2018-08-08T22:45:44.895Z,5.37
2018-08-08T22:48:12.336Z,4.60
2018-08-08T22:50:39.803Z,5.33
2018-08-08T22:53:07.244Z,4.85
2018-08-08T22:55:34.687Z,5.20
2018-08-08T22:58:02.169Z,4.35
2018-08-08T23:00:29.645Z,4.80
2018-08-08T23:02:57.068Z,4.50
2018-08-08T23:05:24.601Z,4.80
2018-08-08T23:07:52.065Z,4.47
2018-08-08T23:10:19.507Z,4.65
2018-08-08T23:12:46.990Z,5.35
2018-08-08T23:15:14.453Z,4.92
2018-08-08T23:17:41.912Z,4.65
2018-08-08T23:20:10.091Z,4.50
2018-08-08T23:22:49.652Z,5.00
2018-08-08T23:25:17.344Z,5.00
2018-08-08T23:27:45.007Z,5.53
2018-08-08T23:30:12.483Z,4.83
2018-08-08T23:32:40.044Z,4.90
2018-08-08T23:35:07.488Z,4.33
2018-08-08T23:37:34.951Z,5.20
2018-08-08T23:40:06.999Z,5.87
2018-08-08T23:42:34.535Z,5.62
2018-08-08T23:45:02.058Z,5.40
2018-08-08T23:47:29.916Z,5.17
2018-08-08T23:49:57.358Z,5.37
2018-08-08T23:52:24.855Z,5.53
2018-08-08T23:54:52.471Z,5.97
2018-08-08T23:57:20.035Z,5.70
2018-08-08T23:59:47.471Z,4.90
